createdAt,value
2023-02-11T00:00:11.866Z,30.21
2023-02-11T00:02:46.048Z,30.26
2023-02-11T00:05:18.268Z,30.44
2023-02-11T00:07:49.948Z,30.56
2023-02-11T00:10:20.560Z,30.57
2023-02-11T00:12:49.568Z,30.56
2023-02-11T00:15:21.829Z,30.72
2023-02-11T00:17:51.017Z,30.86
2023-02-11T00:20:23.155Z,31.15
2023-02-11T00:22:53.030Z,31.25
2023-02-11T00:25:22.105Z,31.28
2023-02-11T00:27:54.225Z,31.31
2023-02-11T00:30:23.370Z,31.27
2023-02-11T00:32:52.325Z,31.17
2023-02-11T00:35:21.654Z,31.20
2023-02-11T00:37:54.538Z,31.29
2023-02-11T00:40:24.866Z,31.28
2023-02-11T00:42:53.825Z,31.43
2023-02-11T00:45:25.924Z,31.45
2023-02-11T00:47:57.686Z,31.50
2023-02-11T00:50:26.514Z,31.44
2023-02-11T00:52:57.960Z,31.51
2023-02-11T00:55:27.317Z,31.63
2023-02-11T00:57:59.761Z,31.93
2023-02-11T01:00:29.101Z,31.91
2023-02-11T01:03:00.306Z,32.03
2023-02-11T01:05:30.866Z,32.14
2023-02-11T01:08:01.964Z,32.13
2023-02-11T01:10:34.645Z,32.14
2023-02-11T01:13:05.754Z,32.10
2023-02-11T01:15:34.697Z,32.08
2023-02-11T01:18:06.211Z,32.04
2023-02-11T01:20:35.434Z,31.94
2023-02-11T01:23:04.506Z,31.88
2023-02-11T01:25:37.290Z,31.84
2023-02-11T01:28:13.033Z,31.66
2023-02-11T01:30:42.540Z,31.62
2023-02-11T01:33:12.389Z,31.55
2023-02-11T01:35:43.360Z,31.53
2023-02-11T01:38:21.582Z,31.51
2023-02-11T01:41:03.288Z,31.49
2023-02-11T01:43:35.625Z,31.47
2023-02-11T01:46:05.841Z,31.62
2023-02-11T01:48:37.712Z,31.47
2023-02-11T01:51:11.933Z,31.50
2023-02-11T01:54:01.998Z,31.68
2023-02-11T01:56:53.815Z,31.78
2023-02-11T01:59:26.306Z,31.84
2023-02-11T02:01:58.443Z,31.77
2023-02-11T02:04:32.031Z,31.64
2023-02-11T02:07:09.708Z,31.56
2023-02-11T02:09:42.480Z,31.60
2023-02-11T02:12:11.606Z,31.50
2023-02-11T02:14:42.307Z,31.47
2023-02-11T02:17:21.807Z,31.21
2023-02-11T02:20:11.520Z,31.31
2023-02-11T02:22:54.131Z,31.45
2023-02-11T02:25:44.745Z,31.48
2023-02-11T02:28:37.822Z,31.35
2023-02-11T02:31:27.817Z,31.14
2023-02-11T02:34:15.101Z,30.92
2023-02-11T02:36:58.648Z,31.03
2023-02-11T02:39:29.769Z,31.12
2023-02-11T02:41:58.881Z,31.09
2023-02-11T02:44:29.661Z,31.04
2023-02-11T02:46:59.832Z,31.13
2023-02-11T02:49:28.863Z,31.12
2023-02-11T02:52:19.584Z,31.18
2023-02-11T02:55:06.864Z,31.53
2023-02-11T02:57:48.964Z,31.57
2023-02-11T03:00:32.447Z,31.64
2023-02-11T03:03:18.908Z,31.55
2023-02-11T03:05:55.848Z,31.37
2023-02-11T03:08:38.380Z,31.38
2023-02-11T03:11:07.752Z,31.37
2023-02-11T03:13:39.723Z,31.44
2023-02-11T03:16:22.470Z,31.45
2023-02-11T03:18:57.805Z,31.51
2023-02-11T03:21:27.130Z,31.53
2023-02-11T03:24:02.746Z,31.31
2023-02-11T03:26:41.433Z,31.29
2023-02-11T03:29:18.290Z,31.35
2023-02-11T03:32:19.040Z,31.66
2023-02-11T03:35:01.955Z,31.61
2023-02-11T03:37:41.289Z,31.59
2023-02-11T03:40:16.523Z,31.53
2023-02-11T03:42:50.186Z,31.62
2023-02-11T03:45:28.382Z,31.40
2023-02-11T03:48:21.643Z,31.44
2023-02-11T03:50:50.967Z,31.47
2023-02-11T03:53:22.278Z,31.44
2023-02-11T03:55:53.079Z,31.51
2023-02-11T03:58:22.284Z,31.51
2023-02-11T04:00:51.936Z,31.51
2023-02-11T04:03:21.373Z,31.53
2023-02-11T04:05:50.892Z,31.42
2023-02-11T04:08:23.045Z,31.42
2023-02-11T04:10:53.333Z,31.45
2023-02-11T04:13:24.586Z,31.47
2023-02-11T04:15:54.201Z,31.31
2023-02-11T04:18:23.508Z,31.28
2023-02-11T04:20:52.905Z,31.31
2023-02-11T04:23:23.516Z,31.53
2023-02-11T04:25:53.080Z,31.53
2023-02-11T04:28:27.452Z,31.23
2023-02-11T04:30:57.008Z,31.37
2023-02-11T04:33:28.859Z,31.36
2023-02-11T04:35:59.566Z,31.43
2023-02-11T04:38:28.997Z,31.49
2023-02-11T04:41:00.179Z,31.55
2023-02-11T04:43:35.022Z,31.55
2023-02-11T04:46:04.612Z,31.53
2023-02-11T04:48:36.408Z,31.52
2023-02-11T04:51:06.108Z,31.62
2023-02-11T04:53:35.307Z,31.59
2023-02-11T04:56:05.287Z,31.59
2023-02-11T04:58:35.847Z,31.68
2023-02-11T05:01:09.275Z,31.77
2023-02-11T05:03:39.254Z,31.93
2023-02-11T05:06:11.214Z,31.79
2023-02-11T05:08:44.463Z,31.93
2023-02-11T05:11:19.422Z,31.89
2023-02-11T05:13:49.161Z,31.75
2023-02-11T05:16:23.222Z,31.69
2023-02-11T05:18:56.255Z,31.66
2023-02-11T05:21:29.355Z,31.53
2023-02-11T05:23:59.178Z,31.28
2023-02-11T05:26:34.074Z,31.27
2023-02-11T05:29:03.716Z,31.31
2023-02-11T05:31:34.253Z,31.44
2023-02-11T05:34:05.585Z,31.54
2023-02-11T05:36:35.396Z,31.46
2023-02-11T05:39:05.800Z,31.46
2023-02-11T05:41:37.109Z,31.51
2023-02-11T05:44:08.300Z,31.52
2023-02-11T05:46:39.629Z,31.55
2023-02-11T05:49:09.971Z,31.58
2023-02-11T05:51:39.159Z,31.64
2023-02-11T05:54:08.523Z,31.79
2023-02-11T05:56:38.938Z,31.78
2023-02-11T05:59:08.228Z,31.82
2023-02-11T06:01:40.987Z,31.86
2023-02-11T06:04:10.700Z,31.91
2023-02-11T06:06:40.116Z,31.94
2023-02-11T06:09:13.148Z,31.91
2023-02-11T06:11:42.803Z,31.93
2023-02-11T06:14:15.245Z,31.82
2023-02-11T06:16:46.105Z,31.68
2023-02-11T06:19:16.025Z,31.60
2023-02-11T06:21:46.564Z,31.64
2023-02-11T06:24:47.699Z,31.62
2023-02-11T06:27:14.498Z,31.73
2023-02-11T06:29:45.189Z,31.88
2023-02-11T06:32:37.001Z,32.26
2023-02-11T06:35:05.967Z,32.22
2023-02-11T06:37:37.166Z,32.19
2023-02-11T06:40:09.829Z,32.15
2023-02-11T06:42:39.949Z,32.08
2023-02-11T06:45:11.325Z,32.01
2023-02-11T06:47:42.692Z,32.14
2023-02-11T06:50:14.077Z,32.18
2023-02-11T06:52:44.109Z,32.39
2023-02-11T06:55:14.658Z,32.34
2023-02-11T06:57:48.051Z,32.26
2023-02-11T07:00:18.380Z,32.20
2023-02-11T07:02:49.168Z,32.10
2023-02-11T07:05:19.910Z,32.02
2023-02-11T07:07:49.313Z,32.06
2023-02-11T07:10:23.182Z,32.14
2023-02-11T07:12:57.002Z,32.21
2023-02-11T07:15:28.223Z,32.25
2023-02-11T07:17:57.581Z,32.22
2023-02-11T07:20:27.544Z,32.32
2023-02-11T07:22:59.272Z,32.29
2023-02-11T07:25:28.328Z,32.01
2023-02-11T07:27:58.549Z,31.92
2023-02-11T07:30:28.572Z,31.90
2023-02-11T07:32:57.589Z,32.07
2023-02-11T07:35:27.283Z,32.24
2023-02-11T07:37:56.906Z,32.48
2023-02-11T07:40:26.910Z,32.53
2023-02-11T07:42:59.047Z,32.52
2023-02-11T07:45:28.682Z,32.47
2023-02-11T07:47:58.048Z,32.39
2023-02-11T07:50:27.422Z,32.38
2023-02-11T07:52:57.408Z,32.42
2023-02-11T07:55:27.269Z,32.44
2023-02-11T07:57:57.967Z,32.61
2023-02-11T08:00:27.491Z,32.64
2023-02-11T08:03:20.466Z,32.71
2023-02-11T08:05:57.555Z,32.87
2023-02-11T08:08:28.446Z,32.91
2023-02-11T08:10:57.899Z,32.98
2023-02-11T08:13:29.707Z,33.10
2023-02-11T08:16:11.215Z,33.20
2023-02-11T08:18:41.705Z,33.13
2023-02-11T08:21:12.745Z,33.00
2023-02-11T08:23:48.303Z,33.02
2023-02-11T08:26:26.825Z,33.10
2023-02-11T08:28:59.905Z,33.20
2023-02-11T08:31:39.564Z,33.24
2023-02-11T08:34:11.400Z,33.04
2023-02-11T08:36:41.964Z,33.02
2023-02-11T08:39:22.343Z,32.86
2023-02-11T08:41:53.860Z,32.58
2023-02-11T08:44:25.754Z,32.46
2023-02-11T08:46:54.791Z,32.36
2023-02-11T08:49:24.795Z,32.28
2023-02-11T08:51:59.282Z,32.17
2023-02-11T08:54:34.383Z,31.98
2023-02-11T08:57:04.312Z,31.96
2023-02-11T08:59:35.151Z,32.01
2023-02-11T09:02:04.417Z,32.04
2023-02-11T09:04:34.056Z,32.10
2023-02-11T09:07:06.306Z,32.22
2023-02-11T09:09:37.356Z,32.52
2023-02-11T09:12:11.821Z,32.64
2023-02-11T09:14:45.780Z,32.80
2023-02-11T09:17:14.889Z,32.30
2023-02-11T09:19:47.037Z,32.43
2023-02-11T09:22:16.348Z,32.57
2023-02-11T09:24:48.207Z,32.65
2023-02-11T09:27:23.246Z,32.75
2023-02-11T09:29:53.979Z,32.67
2023-02-11T09:35:09.061Z,32.98
2023-02-11T09:37:39.814Z,33.01
2023-02-11T09:40:12.079Z,33.06
2023-02-11T09:43:06.007Z,33.15
2023-02-11T09:45:36.754Z,32.91
2023-02-11T09:48:14.005Z,32.92
2023-02-11T09:50:58.869Z,32.93
2023-02-11T09:53:36.207Z,32.93
2023-02-11T09:56:15.945Z,32.73
2023-02-11T09:58:49.639Z,32.73
2023-02-11T10:01:37.359Z,32.94
2023-02-11T10:04:26.528Z,33.04
2023-02-11T10:07:24.538Z,32.87
2023-02-11T10:10:22.627Z,33.05
2023-02-11T10:13:01.918Z,32.83
2023-02-11T10:16:08.093Z,33.11
2023-02-11T10:18:47.657Z,33.32
2023-02-11T10:21:21.219Z,33.33
2023-02-11T10:23:52.892Z,33.39
2023-02-11T10:26:22.469Z,33.28
2023-02-11T10:28:58.645Z,33.03
2023-02-11T10:31:39.509Z,32.76
2023-02-11T10:34:13.635Z,32.83
2023-02-11T10:36:45.361Z,32.85
2023-02-11T10:39:28.881Z,32.96
2023-02-11T10:42:15.061Z,32.86
2023-02-11T10:45:06.366Z,32.86
2023-02-11T10:47:38.219Z,33.06
2023-02-11T10:50:37.578Z,33.31
2023-02-11T10:53:17.564Z,33.57
2023-02-11T10:55:54.529Z,33.69
2023-02-11T10:58:29.601Z,33.62
2023-02-11T11:01:00.392Z,33.34
2023-02-11T11:03:33.124Z,33.20
2023-02-11T11:06:10.856Z,33.11
2023-02-11T11:08:49.889Z,33.15
2023-02-11T11:11:24.996Z,33.17
2023-02-11T11:14:04.514Z,33.18
2023-02-11T11:16:36.377Z,33.11
2023-02-11T11:19:09.711Z,32.92
2023-02-11T11:21:47.287Z,32.70
2023-02-11T11:24:32.832Z,32.07
2023-02-11T11:27:06.569Z,31.98
2023-02-11T11:29:40.872Z,31.91
2023-02-11T11:32:23.520Z,31.80
2023-02-11T11:34:56.393Z,31.78
2023-02-11T11:37:28.170Z,32.16
2023-02-11T11:40:08.652Z,32.47
2023-02-11T11:42:39.816Z,32.41
2023-02-11T11:45:17.008Z,32.27
2023-02-11T11:48:06.556Z,32.39
2023-02-11T11:50:54.583Z,32.10
2023-02-11T11:53:53.648Z,31.98
2023-02-11T11:56:38.295Z,31.81
2023-02-11T11:59:14.273Z,31.80
2023-02-11T12:02:16.215Z,31.77
2023-02-11T12:04:56.305Z,31.63
2023-02-11T12:07:51.455Z,31.64
2023-02-11T12:10:47.233Z,31.68
2023-02-11T12:13:54.897Z,31.72
2023-02-11T12:16:47.882Z,31.77
2023-02-11T12:19:46.741Z,32.09
2023-02-11T12:22:41.466Z,32.11
2023-02-11T12:25:22.097Z,32.10
2023-02-11T12:28:16.163Z,31.86
2023-02-11T12:31:17.784Z,31.72
2023-02-11T12:34:03.164Z,31.56
2023-02-11T12:37:00.229Z,31.46
2023-02-11T12:39:36.493Z,31.51
2023-02-11T12:42:38.085Z,31.60
2023-02-11T12:45:12.357Z,31.64
2023-02-11T12:48:16.706Z,31.77
2023-02-11T12:50:49.366Z,31.96
2023-02-11T12:53:28.314Z,32.00
2023-02-11T12:56:04.285Z,32.07
2023-02-11T12:58:44.842Z,32.14
2023-02-11T13:01:23.472Z,32.11
2023-02-11T13:04:07.659Z,31.77
2023-02-11T13:07:04.263Z,32.08
2023-02-11T13:09:39.120Z,32.28
2023-02-11T13:12:29.379Z,32.30
2023-02-11T13:15:02.428Z,32.19
2023-02-11T13:18:06.311Z,32.24
2023-02-11T13:20:44.710Z,32.25
2023-02-11T13:23:42.885Z,32.38
2023-02-11T13:26:41.419Z,32.43
2023-02-11T13:29:17.656Z,32.49
2023-02-11T13:32:07.759Z,32.61
2023-02-11T13:34:45.305Z,32.62
2023-02-11T13:37:27.270Z,32.63
2023-02-11T13:40:00.462Z,32.73
2023-02-11T13:42:32.134Z,32.56
2023-02-11T13:45:02.381Z,32.38
2023-02-11T13:47:33.704Z,32.19
2023-02-11T13:50:04.624Z,31.99
2023-02-11T13:52:35.685Z,32.48
2023-02-11T13:55:08.624Z,32.43
2023-02-11T13:57:41.187Z,32.32
2023-02-11T14:00:44.118Z,32.62
2023-02-11T14:03:41.559Z,32.73
2023-02-11T14:06:33.925Z,32.72
2023-02-11T14:09:11.554Z,32.40
2023-02-11T14:11:42.396Z,32.13
2023-02-11T14:14:36.082Z,32.16
2023-02-11T14:17:09.879Z,32.14
2023-02-11T14:19:44.358Z,32.03
2023-02-11T14:22:32.718Z,32.33
2023-02-11T14:25:05.026Z,32.46
2023-02-11T14:27:35.180Z,32.34
2023-02-11T14:30:17.480Z,32.37
2023-02-11T14:33:18.460Z,32.40
2023-02-11T14:36:14.432Z,32.39
2023-02-11T14:39:44.908Z,32.08
2023-02-11T14:42:20.729Z,32.33
2023-02-11T14:44:51.321Z,32.54
2023-02-11T14:47:30.642Z,32.60
2023-02-11T14:50:01.765Z,32.59
2023-02-11T14:52:33.900Z,32.58
2023-02-11T14:55:24.559Z,32.48
2023-02-11T14:58:07.428Z,32.50
2023-02-11T15:00:37.404Z,32.46
2023-02-11T15:03:10.090Z,32.35
2023-02-11T15:05:42.242Z,32.26
2023-02-11T15:08:14.770Z,32.34
2023-02-11T15:10:46.049Z,32.33
2023-02-11T15:13:32.060Z,32.07
2023-02-11T15:16:10.721Z,31.91
2023-02-11T15:18:42.546Z,31.94
2023-02-11T15:21:13.348Z,31.87
2023-02-11T15:23:45.557Z,31.73
2023-02-11T15:26:23.862Z,31.57
2023-02-11T15:28:57.081Z,31.76
2023-02-11T15:31:27.808Z,31.88
2023-02-11T15:34:07.935Z,31.69
2023-02-11T15:36:39.699Z,31.47
2023-02-11T15:39:41.706Z,31.40
2023-02-11T15:42:40.858Z,31.27
2023-02-11T15:45:18.795Z,31.25
2023-02-11T15:47:52.125Z,31.21
2023-02-11T15:50:26.448Z,31.13
2023-02-11T15:52:58.992Z,31.07
2023-02-11T19:17:42.634Z,28.72
2023-02-11T19:20:12.709Z,35.60
2023-02-11T19:22:42.485Z,34.79
2023-02-11T19:25:13.394Z,34.68
2023-02-11T19:27:44.072Z,34.43
2023-02-11T19:30:16.321Z,34.58
2023-02-11T19:32:47.794Z,33.63
2023-02-11T19:35:17.648Z,33.26
2023-02-11T19:37:47.532Z,32.93
2023-02-11T19:40:25.945Z,33.22
2023-02-11T19:43:00.173Z,33.45
2023-02-11T19:45:30.203Z,33.58
2023-02-11T19:47:59.941Z,33.77
2023-02-11T19:50:29.919Z,33.66
2023-02-11T19:52:59.671Z,33.56
2023-02-11T19:55:29.955Z,33.65
2023-02-11T19:57:59.313Z,33.95
2023-02-11T20:00:29.729Z,34.09
2023-02-11T20:03:01.297Z,34.25
2023-02-11T20:05:36.091Z,34.42
2023-02-11T20:08:07.224Z,34.50
2023-02-11T20:10:37.631Z,34.16
2023-02-11T20:13:10.232Z,34.48
2023-02-11T20:15:42.517Z,34.55
2023-02-11T20:18:15.372Z,34.30
2023-02-11T20:20:45.688Z,33.97
2023-02-11T20:23:15.754Z,33.77
2023-02-11T20:25:48.561Z,33.77
2023-02-11T20:28:19.238Z,33.81
2023-02-11T20:30:58.926Z,33.86
2023-02-11T20:33:31.981Z,33.91
2023-02-11T20:36:04.767Z,34.08
2023-02-11T20:38:36.859Z,34.19
2023-02-11T20:41:10.197Z,33.96
2023-02-11T20:43:40.648Z,34.06
2023-02-11T20:46:16.046Z,34.22
2023-02-11T20:48:46.096Z,34.29
2023-02-11T20:51:19.095Z,34.05
2023-02-11T20:53:50.086Z,33.84
2023-02-11T20:56:22.861Z,33.85
2023-02-11T20:58:54.350Z,33.78
2023-02-11T21:01:25.794Z,33.80
2023-02-11T21:04:04.269Z,33.52
2023-02-11T21:06:42.233Z,33.51
2023-02-11T21:09:16.520Z,33.50
2023-02-11T21:11:54.949Z,33.18
2023-02-11T21:14:25.343Z,33.45
2023-02-11T21:16:58.071Z,33.41
2023-02-11T21:19:28.252Z,33.37
2023-02-11T21:22:01.265Z,33.10
2023-02-11T21:24:34.035Z,33.27
2023-02-11T21:27:08.460Z,33.28
2023-02-11T21:29:52.676Z,33.59
2023-02-11T21:32:23.858Z,33.85
2023-02-11T21:34:55.968Z,34.38
2023-02-11T21:37:25.583Z,34.51
2023-02-11T21:39:55.347Z,33.94
2023-02-11T21:42:24.321Z,33.79
2023-02-11T21:44:56.299Z,33.57
2023-02-11T21:47:26.239Z,33.46
2023-02-11T21:49:57.751Z,33.45
2023-02-11T21:52:31.691Z,33.87
2023-02-11T21:55:02.086Z,33.90
2023-02-11T21:57:31.635Z,33.76
2023-02-11T22:00:01.680Z,33.78
2023-02-11T22:02:31.120Z,33.76
2023-02-11T22:05:00.584Z,34.03
2023-02-11T22:07:30.124Z,34.04
2023-02-11T22:10:07.315Z,34.26
2023-02-11T22:12:37.945Z,34.24
2023-02-11T22:15:08.054Z,34.08
2023-02-11T22:17:37.496Z,34.08
2023-02-11T22:20:09.024Z,34.09
2023-02-11T22:22:40.625Z,34.06
2023-02-11T22:25:10.196Z,34.31
2023-02-11T22:27:41.334Z,34.79
2023-02-11T22:30:11.600Z,35.37
2023-02-11T22:32:44.119Z,35.46
2023-02-11T22:35:13.498Z,35.44
2023-02-11T22:37:45.251Z,35.14
2023-02-11T22:40:14.776Z,35.00
2023-02-11T22:42:46.535Z,35.02
2023-02-11T22:45:16.163Z,34.70
2023-02-11T22:47:46.347Z,34.55
2023-02-11T22:50:16.993Z,34.34
2023-02-11T22:52:48.664Z,34.16
2023-02-11T22:55:18.064Z,34.04
2023-02-11T22:57:47.656Z,33.92
2023-02-11T23:00:19.274Z,33.89
2023-02-11T23:02:48.481Z,33.99
2023-02-11T23:05:20.280Z,34.34
2023-02-11T23:07:52.147Z,34.15
2023-02-11T23:10:22.136Z,34.14
2023-02-11T23:12:51.908Z,34.04
2023-02-11T23:15:22.049Z,34.13
2023-02-11T23:17:53.144Z,33.94
2023-02-11T23:20:23.276Z,33.75
2023-02-11T23:22:52.954Z,33.44
2023-02-11T23:25:23.096Z,33.63
2023-02-11T23:27:56.203Z,33.70
2023-02-11T23:30:26.685Z,33.78
2023-02-11T23:32:56.539Z,33.47
2023-02-11T23:35:26.325Z,33.24
2023-02-11T23:37:57.425Z,33.28
2023-02-11T23:40:27.223Z,33.57
2023-02-11T23:42:58.667Z,33.78
2023-02-11T23:45:29.067Z,33.76
2023-02-11T23:48:00.161Z,33.41
2023-02-11T23:50:31.342Z,33.29
2023-02-11T23:53:00.882Z,33.38
2023-02-11T23:55:40.587Z,33.25
2023-02-11T23:58:11.625Z,33.49
